sensor_id;sensor_type;location;lat;lon;timestamp;P1;durP1;ratioP1;P2;durP2;ratioP2
44862;SDS011;30597;49.628;10.850;2023-07-20T00:02:17;9.10;;;7.70;;
44862;SDS011;30597;49.628;10.850;2023-07-20T00:04:43;8.20;;;6.90;;
44862;SDS011;30597;49.628;10.850;2023-07-20T00:07:08;10.50;;;7.10;;
44862;SDS011;30597;49.628;10.850;2023-07-20T00:09:34;8.60;;;7.20;;
44862;SDS011;30597;49.628;10.850;2023-07-20T00:11:59;11.50;;;8.27;;
44862;SDS011;30597;49.628;10.850;2023-07-20T00:14:25;10.37;;;8.57;;
44862;SDS011;30597;49.628;10.850;2023-07-20T00:16:51;9.57;;;8.10;;
44862;SDS011;30597;49.628;10.850;2023-07-20T00:19:21;7.80;;;7.10;;
44862;SDS011;30597;49.628;10.850;2023-07-20T00:21:48;9.60;;;7.60;;
44862;SDS011;30597;49.628;10.850;2023-07-20T00:24:14;7.90;;;7.10;;
44862;SDS011;30597;49.628;10.850;2023-07-20T00:26:39;8.53;;;7.23;;
44862;SDS011;30597;49.628;10.850;2023-07-20T00:29:05;10.37;;;7.90;;
44862;SDS011;30597;49.628;10.850;2023-07-20T00:31:30;8.73;;;7.80;;
44862;SDS011;30597;49.628;10.850;2023-07-20T00:33:56;8.27;;;7.33;;
44862;SDS011;30597;49.628;10.850;2023-07-20T00:36:22;9.70;;;7.60;;
44862;SDS011;30597;49.628;10.850;2023-07-20T00:38:47;8.93;;;7.70;;
44862;SDS011;30597;49.628;10.850;2023-07-20T00:41:13;11.00;;;8.07;;
44862;SDS011;30597;49.628;10.850;2023-07-20T00:43:39;9.73;;;7.73;;
44862;SDS011;30597;49.628;10.850;2023-07-20T00:46:07;9.23;;;7.13;;
44862;SDS011;30597;49.628;10.850;2023-07-20T00:48:33;10.13;;;7.70;;
44862;SDS011;30597;49.628;10.850;2023-07-20T00:50:59;8.67;;;6.97;;
44862;SDS011;30597;49.628;10.850;2023-07-20T00:53:26;9.10;;;8.00;;
44862;SDS011;30597;49.628;10.850;2023-07-20T00:55:52;9.13;;;8.23;;
44862;SDS011;30597;49.628;10.850;2023-07-20T00:58:17;9.20;;;7.90;;
44862;SDS011;30597;49.628;10.850;2023-07-20T01:00:44;8.93;;;7.23;;
44862;SDS011;30597;49.628;10.850;2023-07-20T01:03:09;9.20;;;6.93;;
44862;SDS011;30597;49.628;10.850;2023-07-20T01:05:40;8.50;;;7.60;;
44862;SDS011;30597;49.628;10.850;2023-07-20T01:08:37;9.50;;;6.47;;
44862;SDS011;30597;49.628;10.850;2023-07-20T01:11:12;7.70;;;6.90;;
44862;SDS011;30597;49.628;10.850;2023-07-20T01:13:40;11.97;;;7.20;;
44862;SDS011;30597;49.628;10.850;2023-07-20T01:16:07;13.90;;;7.13;;
44862;SDS011;30597;49.628;10.850;2023-07-20T01:18:33;8.67;;;6.73;;
44862;SDS011;30597;49.628;10.850;2023-07-20T01:21:03;7.57;;;5.97;;
44862;SDS011;30597;49.628;10.850;2023-07-20T01:23:52;7.43;;;5.70;;
44862;SDS011;30597;49.628;10.850;2023-07-20T01:29:22;8.30;;;5.80;;
44862;SDS011;30597;49.628;10.850;2023-07-20T01:32:08;12.73;;;6.90;;
44862;SDS011;30597;49.628;10.850;2023-07-20T01:34:35;5.80;;;5.20;;
44862;SDS011;30597;49.628;10.850;2023-07-20T01:37:02;5.73;;;5.13;;
44862;SDS011;30597;49.628;10.850;2023-07-20T01:39:28;7.70;;;5.80;;
44862;SDS011;30597;49.628;10.850;2023-07-20T01:41:56;6.63;;;6.00;;
44862;SDS011;30597;49.628;10.850;2023-07-20T01:44:22;5.77;;;5.27;;
44862;SDS011;30597;49.628;10.850;2023-07-20T01:46:48;8.13;;;6.00;;
44862;SDS011;30597;49.628;10.850;2023-07-20T01:49:13;8.90;;;6.57;;
44862;SDS011;30597;49.628;10.850;2023-07-20T01:51:39;7.20;;;5.80;;
44862;SDS011;30597;49.628;10.850;2023-07-20T01:54:05;5.83;;;4.93;;
44862;SDS011;30597;49.628;10.850;2023-07-20T01:56:31;6.30;;;5.50;;
44862;SDS011;30597;49.628;10.850;2023-07-20T01:58:56;6.10;;;5.00;;
44862;SDS011;30597;49.628;10.850;2023-07-20T02:01:22;6.40;;;5.70;;
44862;SDS011;30597;49.628;10.850;2023-07-20T02:03:47;8.60;;;5.67;;
44862;SDS011;30597;49.628;10.850;2023-07-20T02:06:13;7.37;;;5.30;;
44862;SDS011;30597;49.628;10.850;2023-07-20T02:08:38;5.90;;;5.30;;
44862;SDS011;30597;49.628;10.850;2023-07-20T02:11:04;9.20;;;5.80;;
44862;SDS011;30597;49.628;10.850;2023-07-20T02:13:29;6.63;;;5.13;;
44862;SDS011;30597;49.628;10.850;2023-07-20T02:15:55;6.87;;;5.17;;
44862;SDS011;30597;49.628;10.850;2023-07-20T02:18:21;7.03;;;5.43;;
44862;SDS011;30597;49.628;10.850;2023-07-20T02:20:46;6.90;;;5.00;;
44862;SDS011;30597;49.628;10.850;2023-07-20T02:23:12;5.20;;;4.70;;
44862;SDS011;30597;49.628;10.850;2023-07-20T02:25:37;6.93;;;5.27;;
44862;SDS011;30597;49.628;10.850;2023-07-20T02:28:03;9.07;;;5.40;;
44862;SDS011;30597;49.628;10.850;2023-07-20T02:30:29;6.17;;;4.90;;
44862;SDS011;30597;49.628;10.850;2023-07-20T02:32:55;6.77;;;4.80;;
44862;SDS011;30597;49.628;10.850;2023-07-20T02:35:23;6.60;;;5.30;;
44862;SDS011;30597;49.628;10.850;2023-07-20T02:37:49;5.40;;;4.90;;
44862;SDS011;30597;49.628;10.850;2023-07-20T02:40:14;4.80;;;4.30;;
44862;SDS011;30597;49.628;10.850;2023-07-20T02:42:40;5.63;;;4.20;;
44862;SDS011;30597;49.628;10.850;2023-07-20T02:45:06;6.23;;;4.50;;
44862;SDS011;30597;49.628;10.850;2023-07-20T02:47:32;5.23;;;4.10;;
44862;SDS011;30597;49.628;10.850;2023-07-20T02:49:58;5.47;;;4.97;;
44862;SDS011;30597;49.628;10.850;2023-07-20T02:52:23;5.47;;;4.90;;
44862;SDS011;30597;49.628;10.850;2023-07-20T02:54:49;5.13;;;4.20;;
44862;SDS011;30597;49.628;10.850;2023-07-20T02:57:15;4.40;;;4.00;;
44862;SDS011;30597;49.628;10.850;2023-07-20T02:59:40;5.23;;;4.83;;
44862;SDS011;30597;49.628;10.850;2023-07-20T03:02:06;4.43;;;4.03;;
44862;SDS011;30597;49.628;10.850;2023-07-20T03:04:34;7.70;;;4.03;;
44862;SDS011;30597;49.628;10.850;2023-07-20T03:07:02;5.07;;;3.90;;
44862;SDS011;30597;49.628;10.850;2023-07-20T03:09:28;4.37;;;3.97;;
44862;SDS011;30597;49.628;10.850;2023-07-20T03:11:54;5.60;;;4.00;;
44862;SDS011;30597;49.628;10.850;2023-07-20T03:14:19;5.00;;;4.20;;
44862;SDS011;30597;49.628;10.850;2023-07-20T03:16:45;4.27;;;3.57;;
44862;SDS011;30597;49.628;10.850;2023-07-20T03:19:10;5.07;;;3.67;;
44862;SDS011;30597;49.628;10.850;2023-07-20T03:21:36;3.77;;;3.43;;
44862;SDS011;30597;49.628;10.850;2023-07-20T03:24:05;4.27;;;3.70;;
44862;SDS011;30597;49.628;10.850;2023-07-20T03:26:34;4.57;;;4.17;;
44862;SDS011;30597;49.628;10.850;2023-07-20T03:29:00;4.50;;;4.10;;
44862;SDS011;30597;49.628;10.850;2023-07-20T03:31:27;7.23;;;4.80;;
44862;SDS011;30597;49.628;10.850;2023-07-20T03:33:53;5.27;;;3.63;;
44862;SDS011;30597;49.628;10.850;2023-07-20T03:36:18;4.37;;;3.57;;
44862;SDS011;30597;49.628;10.850;2023-07-20T03:38:44;4.87;;;3.93;;
44862;SDS011;30597;49.628;10.850;2023-07-20T03:41:10;3.90;;;3.60;;
44862;SDS011;30597;49.628;10.850;2023-07-20T03:43:36;4.20;;;3.77;;
44862;SDS011;30597;49.628;10.850;2023-07-20T03:46:02;4.50;;;3.33;;
44862;SDS011;30597;49.628;10.850;2023-07-20T03:48:31;5.50;;;3.93;;
44862;SDS011;30597;49.628;10.850;2023-07-20T03:50:58;4.43;;;4.00;;
44862;SDS011;30597;49.628;10.850;2023-07-20T03:53:25;4.73;;;3.47;;
44862;SDS011;30597;49.628;10.850;2023-07-20T03:55:51;4.10;;;3.60;;
44862;SDS011;30597;49.628;10.850;2023-07-20T03:58:18;3.77;;;3.37;;
44862;SDS011;30597;49.628;10.850;2023-07-20T04:00:45;6.30;;;3.90;;
44862;SDS011;30597;49.628;10.850;2023-07-20T04:03:11;4.20;;;3.80;;
44862;SDS011;30597;49.628;10.850;2023-07-20T04:05:37;4.60;;;3.30;;
44862;SDS011;30597;49.628;10.850;2023-07-20T04:08:02;3.40;;;3.10;;
44862;SDS011;30597;49.628;10.850;2023-07-20T04:10:28;6.17;;;3.30;;
44862;SDS011;30597;49.628;10.850;2023-07-20T04:12:54;3.00;;;2.70;;
44862;SDS011;30597;49.628;10.850;2023-07-20T04:15:20;4.37;;;3.20;;
44862;SDS011;30597;49.628;10.850;2023-07-20T04:17:45;3.90;;;3.30;;
44862;SDS011;30597;49.628;10.850;2023-07-20T04:20:11;4.90;;;3.30;;
44862;SDS011;30597;49.628;10.850;2023-07-20T04:22:36;4.60;;;3.70;;
44862;SDS011;30597;49.628;10.850;2023-07-20T04:25:03;5.17;;;3.50;;
44862;SDS011;30597;49.628;10.850;2023-07-20T04:27:29;4.43;;;3.20;;
44862;SDS011;30597;49.628;10.850;2023-07-20T04:29:54;4.73;;;3.53;;
44862;SDS011;30597;49.628;10.850;2023-07-20T04:32:20;5.03;;;3.37;;
44862;SDS011;30597;49.628;10.850;2023-07-20T04:34:46;3.80;;;3.00;;
44862;SDS011;30597;49.628;10.850;2023-07-20T04:37:11;4.33;;;3.40;;
44862;SDS011;30597;49.628;10.850;2023-07-20T04:39:37;4.40;;;3.07;;
44862;SDS011;30597;49.628;10.850;2023-07-20T04:42:02;4.83;;;3.07;;
44862;SDS011;30597;49.628;10.850;2023-07-20T04:44:28;4.07;;;3.67;;
44862;SDS011;30597;49.628;10.850;2023-07-20T04:46:54;5.00;;;3.70;;
44862;SDS011;30597;49.628;10.850;2023-07-20T04:49:19;3.97;;;3.27;;
44862;SDS011;30597;49.628;10.850;2023-07-20T04:51:45;3.10;;;2.80;;
44862;SDS011;30597;49.628;10.850;2023-07-20T04:54:10;4.97;;;3.17;;
44862;SDS011;30597;49.628;10.850;2023-07-20T04:56:36;4.90;;;3.17;;
44862;SDS011;30597;49.628;10.850;2023-07-20T04:59:04;3.73;;;3.37;;
44862;SDS011;30597;49.628;10.850;2023-07-20T05:01:30;4.03;;;3.73;;
44862;SDS011;30597;49.628;10.850;2023-07-20T05:03:55;3.80;;;3.20;;
44862;SDS011;30597;49.628;10.850;2023-07-20T05:06:21;4.10;;;3.17;;
44862;SDS011;30597;49.628;10.850;2023-07-20T05:08:46;3.40;;;2.70;;
44862;SDS011;30597;49.628;10.850;2023-07-20T05:11:12;4.90;;;2.80;;
44862;SDS011;30597;49.628;10.850;2023-07-20T05:13:38;3.80;;;3.50;;
44862;SDS011;30597;49.628;10.850;2023-07-20T05:16:03;4.40;;;3.40;;
44862;SDS011;30597;49.628;10.850;2023-07-20T05:18:29;6.30;;;3.70;;
44862;SDS011;30597;49.628;10.850;2023-07-20T05:20:55;3.57;;;2.97;;
44862;SDS011;30597;49.628;10.850;2023-07-20T05:23:20;3.80;;;3.03;;
44862;SDS011;30597;49.628;10.850;2023-07-20T05:25:46;3.50;;;3.13;;
44862;SDS011;30597;49.628;10.850;2023-07-20T05:28:18;3.37;;;2.93;;
44862;SDS011;30597;49.628;10.850;2023-07-20T05:30:44;4.80;;;3.27;;
44862;SDS011;30597;49.628;10.850;2023-07-20T05:33:09;5.10;;;2.83;;
44862;SDS011;30597;49.628;10.850;2023-07-20T05:35:35;4.90;;;3.00;;
44862;SDS011;30597;49.628;10.850;2023-07-20T05:38:01;4.03;;;3.10;;
44862;SDS011;30597;49.628;10.850;2023-07-20T05:40:29;4.60;;;3.00;;
44862;SDS011;30597;49.628;10.850;2023-07-20T05:42:54;2.97;;;2.70;;
44862;SDS011;30597;49.628;10.850;2023-07-20T05:45:21;5.43;;;3.10;;
44862;SDS011;30597;49.628;10.850;2023-07-20T05:47:47;3.70;;;2.90;;
44862;SDS011;30597;49.628;10.850;2023-07-20T05:50:13;8.83;;;3.47;;
44862;SDS011;30597;49.628;10.850;2023-07-20T05:52:39;5.60;;;3.37;;
44862;SDS011;30597;49.628;10.850;2023-07-20T05:55:05;5.30;;;2.70;;
44862;SDS011;30597;49.628;10.850;2023-07-20T05:57:31;3.73;;;2.93;;
44862;SDS011;30597;49.628;10.850;2023-07-20T05:59:57;3.27;;;2.97;;
44862;SDS011;30597;49.628;10.850;2023-07-20T06:02:23;3.93;;;2.80;;
44862;SDS011;30597;49.628;10.850;2023-07-20T06:04:48;3.33;;;3.03;;
44862;SDS011;30597;49.628;10.850;2023-07-20T06:07:14;3.87;;;2.57;;
44862;SDS011;30597;49.628;10.850;2023-07-20T06:09:40;5.03;;;2.80;;
44862;SDS011;30597;49.628;10.850;2023-07-20T06:12:06;6.03;;;3.40;;
44862;SDS011;30597;49.628;10.850;2023-07-20T06:14:32;4.30;;;2.60;;
44862;SDS011;30597;49.628;10.850;2023-07-20T06:16:57;2.73;;;2.43;;
44862;SDS011;30597;49.628;10.850;2023-07-20T06:19:23;2.97;;;2.67;;
44862;SDS011;30597;49.628;10.850;2023-07-20T06:21:48;5.43;;;2.60;;
44862;SDS011;30597;49.628;10.850;2023-07-20T06:24:17;3.40;;;2.60;;
44862;SDS011;30597;49.628;10.850;2023-07-20T06:26:43;7.43;;;2.80;;
44862;SDS011;30597;49.628;10.850;2023-07-20T06:29:08;3.13;;;2.80;;
44862;SDS011;30597;49.628;10.850;2023-07-20T06:31:34;3.03;;;2.77;;
44862;SDS011;30597;49.628;10.850;2023-07-20T06:34:00;8.47;;;3.23;;
44862;SDS011;30597;49.628;10.850;2023-07-20T06:36:26;8.23;;;2.60;;
44862;SDS011;30597;49.628;10.850;2023-07-20T06:38:52;4.50;;;2.60;;
44862;SDS011;30597;49.628;10.850;2023-07-20T06:41:18;2.93;;;2.70;;
44862;SDS011;30597;49.628;10.850;2023-07-20T06:43:44;3.77;;;3.00;;
44862;SDS011;30597;49.628;10.850;2023-07-20T06:46:10;4.93;;;2.93;;
44862;SDS011;30597;49.628;10.850;2023-07-20T06:48:35;3.07;;;2.63;;
44862;SDS011;30597;49.628;10.850;2023-07-20T06:51:01;2.90;;;2.50;;
44862;SDS011;30597;49.628;10.850;2023-07-20T06:53:27;3.00;;;2.70;;
44862;SDS011;30597;49.628;10.850;2023-07-20T06:55:53;2.90;;;2.60;;
44862;SDS011;30597;49.628;10.850;2023-07-20T06:58:19;2.83;;;2.33;;
44862;SDS011;30597;49.628;10.850;2023-07-20T07:00:46;9.53;;;3.07;;
44862;SDS011;30597;49.628;10.850;2023-07-20T07:03:12;5.23;;;3.00;;
44862;SDS011;30597;49.628;10.850;2023-07-20T07:05:44;4.37;;;2.80;;
44862;SDS011;30597;49.628;10.850;2023-07-20T07:08:10;4.43;;;3.30;;
44862;SDS011;30597;49.628;10.850;2023-07-20T07:10:36;3.20;;;2.50;;
44862;SDS011;30597;49.628;10.850;2023-07-20T07:13:02;3.23;;;2.20;;
44862;SDS011;30597;49.628;10.850;2023-07-20T07:15:28;5.73;;;2.50;;
44862;SDS011;30597;49.628;10.850;2023-07-20T07:17:54;4.90;;;3.30;;
44862;SDS011;30597;49.628;10.850;2023-07-20T07:20:20;5.53;;;4.37;;
44862;SDS011;30597;49.628;10.850;2023-07-20T07:22:46;6.60;;;4.20;;
44862;SDS011;30597;49.628;10.850;2023-07-20T07:25:12;5.47;;;4.43;;
44862;SDS011;30597;49.628;10.850;2023-07-20T07:27:38;9.03;;;5.10;;
44862;SDS011;30597;49.628;10.850;2023-07-20T07:30:04;8.60;;;5.13;;
44862;SDS011;30597;49.628;10.850;2023-07-20T07:32:30;14.20;;;5.73;;
44862;SDS011;30597;49.628;10.850;2023-07-20T07:34:56;13.80;;;7.80;;
44862;SDS011;30597;49.628;10.850;2023-07-20T07:37:23;16.13;;;7.70;;
44862;SDS011;30597;49.628;10.850;2023-07-20T07:39:49;16.13;;;8.50;;
44862;SDS011;30597;49.628;10.850;2023-07-20T07:42:14;14.70;;;9.33;;
44862;SDS011;30597;49.628;10.850;2023-07-20T07:44:40;20.87;;;10.83;;
44862;SDS011;30597;49.628;10.850;2023-07-20T07:47:05;16.83;;;10.87;;
44862;SDS011;30597;49.628;10.850;2023-07-20T07:49:31;19.07;;;12.13;;
44862;SDS011;30597;49.628;10.850;2023-07-20T07:51:57;28.40;;;12.30;;
44862;SDS011;30597;49.628;10.850;2023-07-20T07:54:22;16.03;;;11.60;;
44862;SDS011;30597;49.628;10.850;2023-07-20T07:56:48;18.30;;;13.90;;
44862;SDS011;30597;49.628;10.850;2023-07-20T07:59:14;19.83;;;12.83;;
44862;SDS011;30597;49.628;10.850;2023-07-20T08:01:39;18.10;;;13.07;;
44862;SDS011;30597;49.628;10.850;2023-07-20T08:04:05;17.87;;;14.50;;
44862;SDS011;30597;49.628;10.850;2023-07-20T08:06:30;26.73;;;17.13;;
44862;SDS011;30597;49.628;10.850;2023-07-20T08:08:56;23.00;;;15.93;;
44862;SDS011;30597;49.628;10.850;2023-07-20T08:11:23;20.90;;;16.30;;
44862;SDS011;30597;49.628;10.850;2023-07-20T08:13:49;21.73;;;17.50;;
44862;SDS011;30597;49.628;10.850;2023-07-20T08:16:14;22.03;;;17.90;;
44862;SDS011;30597;49.628;10.850;2023-07-20T08:18:40;25.50;;;18.30;;
44862;SDS011;30597;49.628;10.850;2023-07-20T08:21:06;25.23;;;19.47;;
44862;SDS011;30597;49.628;10.850;2023-07-20T08:23:31;30.83;;;22.07;;
44862;SDS011;30597;49.628;10.850;2023-07-20T08:25:57;31.13;;;22.90;;
44862;SDS011;30597;49.628;10.850;2023-07-20T08:28:23;25.63;;;21.20;;
44862;SDS011;30597;49.628;10.850;2023-07-20T08:30:48;28.27;;;23.63;;
44862;SDS011;30597;49.628;10.850;2023-07-20T08:33:14;29.53;;;23.20;;
44862;SDS011;30597;49.628;10.850;2023-07-20T08:35:41;34.20;;;25.70;;
44862;SDS011;30597;49.628;10.850;2023-07-20T08:38:08;34.27;;;25.70;;
44862;SDS011;30597;49.628;10.850;2023-07-20T08:40:35;35.80;;;27.87;;
44862;SDS011;30597;49.628;10.850;2023-07-20T08:43:05;36.83;;;28.37;;
44862;SDS011;30597;49.628;10.850;2023-07-20T08:45:32;41.40;;;30.53;;
44862;SDS011;30597;49.628;10.850;2023-07-20T08:47:58;43.77;;;29.13;;
44862;SDS011;30597;49.628;10.850;2023-07-20T08:50:27;35.03;;;28.93;;
44862;SDS011;30597;49.628;10.850;2023-07-20T08:52:55;38.20;;;30.17;;
44862;SDS011;30597;49.628;10.850;2023-07-20T08:55:22;45.90;;;36.10;;
44862;SDS011;30597;49.628;10.850;2023-07-20T08:57:49;43.67;;;34.60;;
44862;SDS011;30597;49.628;10.850;2023-07-20T09:00:17;41.47;;;34.40;;
44862;SDS011;30597;49.628;10.850;2023-07-20T09:02:45;42.33;;;34.17;;
44862;SDS011;30597;49.628;10.850;2023-07-20T09:05:15;43.20;;;35.57;;
44862;SDS011;30597;49.628;10.850;2023-07-20T09:07:40;41.80;;;34.37;;
44862;SDS011;30597;49.628;10.850;2023-07-20T09:10:06;48.43;;;34.70;;
44862;SDS011;30597;49.628;10.850;2023-07-20T09:12:38;46.13;;;34.50;;
44862;SDS011;30597;49.628;10.850;2023-07-20T09:15:05;44.13;;;35.67;;
44862;SDS011;30597;49.628;10.850;2023-07-20T09:17:31;47.70;;;37.80;;
44862;SDS011;30597;49.628;10.850;2023-07-20T09:19:57;46.90;;;36.57;;
44862;SDS011;30597;49.628;10.850;2023-07-20T09:22:29;51.07;;;38.77;;
44862;SDS011;30597;49.628;10.850;2023-07-20T09:24:56;51.00;;;38.73;;
44862;SDS011;30597;49.628;10.850;2023-07-20T09:27:29;47.23;;;39.03;;
44862;SDS011;30597;49.628;10.850;2023-07-20T09:30:02;53.40;;;42.50;;
44862;SDS011;30597;49.628;10.850;2023-07-20T09:32:28;57.77;;;44.17;;
44862;SDS011;30597;49.628;10.850;2023-07-20T09:34:54;53.17;;;42.90;;
44862;SDS011;30597;49.628;10.850;2023-07-20T09:37:23;61.27;;;45.90;;
44862;SDS011;30597;49.628;10.850;2023-07-20T09:39:51;58.33;;;46.23;;
44862;SDS011;30597;49.628;10.850;2023-07-20T09:42:21;62.43;;;47.30;;
44862;SDS011;30597;49.628;10.850;2023-07-20T09:44:47;69.23;;;51.00;;
44862;SDS011;30597;49.628;10.850;2023-07-20T09:47:13;56.50;;;45.50;;
44862;SDS011;30597;49.628;10.850;2023-07-20T09:49:47;58.77;;;49.50;;
44862;SDS011;30597;49.628;10.850;2023-07-20T09:52:12;60.63;;;49.60;;
44862;SDS011;30597;49.628;10.850;2023-07-20T09:54:39;59.27;;;50.57;;
44862;SDS011;30597;49.628;10.850;2023-07-20T09:57:09;54.97;;;45.70;;
44862;SDS011;30597;49.628;10.850;2023-07-20T09:59:37;55.83;;;45.40;;
44862;SDS011;30597;49.628;10.850;2023-07-20T10:02:03;65.37;;;50.23;;
44862;SDS011;30597;49.628;10.850;2023-07-20T10:04:34;79.97;;;60.60;;
44862;SDS011;30597;49.628;10.850;2023-07-20T10:07:02;59.33;;;48.90;;
44862;SDS011;30597;49.628;10.850;2023-07-20T10:09:32;67.10;;;53.70;;
44862;SDS011;30597;49.628;10.850;2023-07-20T10:12:04;64.43;;;51.33;;
44862;SDS011;30597;49.628;10.850;2023-07-20T10:14:31;83.67;;;65.30;;
44862;SDS011;30597;49.628;10.850;2023-07-20T10:17:00;65.57;;;53.30;;
44862;SDS011;30597;49.628;10.850;2023-07-20T10:19:39;66.23;;;52.43;;
44862;SDS011;30597;49.628;10.850;2023-07-20T10:22:31;69.07;;;54.23;;
44862;SDS011;30597;49.628;10.850;2023-07-20T10:25:02;72.70;;;53.57;;
44862;SDS011;30597;49.628;10.850;2023-07-20T10:27:30;78.73;;;65.43;;
44862;SDS011;30597;49.628;10.850;2023-07-20T10:29:55;73.70;;;59.33;;
44862;SDS011;30597;49.628;10.850;2023-07-20T10:32:24;78.97;;;61.00;;
44862;SDS011;30597;49.628;10.850;2023-07-20T10:34:52;69.90;;;57.60;;
44862;SDS011;30597;49.628;10.850;2023-07-20T10:42:59;87.80;;;67.63;;
44862;SDS011;30597;49.628;10.850;2023-07-20T10:45:33;75.10;;;57.63;;
44862;SDS011;30597;49.628;10.850;2023-07-20T10:48:04;73.87;;;62.57;;
44862;SDS011;30597;49.628;10.850;2023-07-20T10:50:34;71.33;;;57.50;;
44862;SDS011;30597;49.628;10.850;2023-07-20T10:53:04;75.37;;;61.97;;
44862;SDS011;30597;49.628;10.850;2023-07-20T10:55:41;77.10;;;62.90;;
44862;SDS011;30597;49.628;10.850;2023-07-20T10:58:11;80.23;;;62.83;;
44862;SDS011;30597;49.628;10.850;2023-07-20T11:00:55;78.27;;;61.60;;
44862;SDS011;30597;49.628;10.850;2023-07-20T11:03:32;73.63;;;58.63;;
44862;SDS011;30597;49.628;10.850;2023-07-20T11:05:58;74.73;;;61.77;;
44862;SDS011;30597;49.628;10.850;2023-07-20T11:08:40;75.23;;;62.87;;
44862;SDS011;30597;49.628;10.850;2023-07-20T11:13:55;79.23;;;59.87;;
44862;SDS011;30597;49.628;10.850;2023-07-20T11:19:05;99.77;;;78.77;;
44862;SDS011;30597;49.628;10.850;2023-07-20T11:21:37;93.73;;;73.93;;
44862;SDS011;30597;49.628;10.850;2023-07-20T11:24:06;76.87;;;61.93;;
44862;SDS011;30597;49.628;10.850;2023-07-20T11:26:42;85.37;;;72.30;;
44862;SDS011;30597;49.628;10.850;2023-07-20T11:29:09;90.03;;;69.53;;
44862;SDS011;30597;49.628;10.850;2023-07-20T11:31:35;85.23;;;68.20;;
44862;SDS011;30597;49.628;10.850;2023-07-20T11:34:02;91.83;;;75.40;;
44862;SDS011;30597;49.628;10.850;2023-07-20T11:36:27;85.73;;;69.50;;
44862;SDS011;30597;49.628;10.850;2023-07-20T11:38:53;94.50;;;77.63;;
44862;SDS011;30597;49.628;10.850;2023-07-20T11:41:19;86.57;;;68.33;;
44862;SDS011;30597;49.628;10.850;2023-07-20T11:43:45;83.50;;;70.20;;
44862;SDS011;30597;49.628;10.850;2023-07-20T11:46:11;90.20;;;73.50;;
44862;SDS011;30597;49.628;10.850;2023-07-20T11:48:36;88.43;;;74.97;;
44862;SDS011;30597;49.628;10.850;2023-07-20T11:51:02;93.40;;;77.40;;
44862;SDS011;30597;49.628;10.850;2023-07-20T11:53:27;102.87;;;81.13;;
44862;SDS011;30597;49.628;10.850;2023-07-20T11:55:53;88.10;;;73.33;;
44862;SDS011;30597;49.628;10.850;2023-07-20T11:58:19;90.27;;;73.93;;
44862;SDS011;30597;49.628;10.850;2023-07-20T12:00:46;100.40;;;78.50;;
44862;SDS011;30597;49.628;10.850;2023-07-20T12:03:12;102.37;;;78.47;;
44862;SDS011;30597;49.628;10.850;2023-07-20T12:05:38;94.47;;;75.23;;
44862;SDS011;30597;49.628;10.850;2023-07-20T12:08:04;85.80;;;71.13;;
44862;SDS011;30597;49.628;10.850;2023-07-20T12:10:30;90.60;;;75.53;;
44862;SDS011;30597;49.628;10.850;2023-07-20T12:13:02;93.73;;;80.77;;
44862;SDS011;30597;49.628;10.850;2023-07-20T12:15:32;95.73;;;79.40;;
44862;SDS011;30597;49.628;10.850;2023-07-20T12:17:59;98.40;;;82.90;;
44862;SDS011;30597;49.628;10.850;2023-07-20T12:22:56;93.33;;;77.53;;
44862;SDS011;30597;49.628;10.850;2023-07-20T12:25:46;86.40;;;71.33;;
44862;SDS011;30597;49.628;10.850;2023-07-20T12:28:16;89.00;;;75.03;;
44862;SDS011;30597;49.628;10.850;2023-07-20T12:30:44;95.13;;;80.13;;
44862;SDS011;30597;49.628;10.850;2023-07-20T12:33:11;94.17;;;75.80;;
44862;SDS011;30597;49.628;10.850;2023-07-20T12:35:39;95.63;;;80.30;;
44862;SDS011;30597;49.628;10.850;2023-07-20T12:38:04;107.97;;;89.17;;
44862;SDS011;30597;49.628;10.850;2023-07-20T12:40:31;98.00;;;81.90;;
44862;SDS011;30597;49.628;10.850;2023-07-20T12:42:57;103.30;;;84.33;;
44862;SDS011;30597;49.628;10.850;2023-07-20T12:45:23;94.83;;;77.20;;
44862;SDS011;30597;49.628;10.850;2023-07-20T12:47:48;99.33;;;81.63;;
44862;SDS011;30597;49.628;10.850;2023-07-20T12:50:14;97.70;;;82.23;;
44862;SDS011;30597;49.628;10.850;2023-07-20T12:52:40;110.47;;;91.10;;
44862;SDS011;30597;49.628;10.850;2023-07-20T12:55:06;104.73;;;84.53;;
44862;SDS011;30597;49.628;10.850;2023-07-20T12:57:33;111.63;;;91.97;;
44862;SDS011;30597;49.628;10.850;2023-07-20T13:00:00;117.50;;;100.47;;
44862;SDS011;30597;49.628;10.850;2023-07-20T13:02:26;96.80;;;83.60;;
44862;SDS011;30597;49.628;10.850;2023-07-20T13:04:52;105.13;;;86.83;;
44862;SDS011;30597;49.628;10.850;2023-07-20T13:07:19;99.23;;;83.20;;
44862;SDS011;30597;49.628;10.850;2023-07-20T13:09:58;100.77;;;84.30;;
44862;SDS011;30597;49.628;10.850;2023-07-20T13:12:26;92.93;;;77.87;;
44862;SDS011;30597;49.628;10.850;2023-07-20T13:14:52;90.30;;;75.63;;
44862;SDS011;30597;49.628;10.850;2023-07-20T13:17:17;85.50;;;70.97;;
44862;SDS011;30597;49.628;10.850;2023-07-20T13:19:43;108.53;;;89.20;;
44862;SDS011;30597;49.628;10.850;2023-07-20T13:22:08;95.60;;;79.13;;
44862;SDS011;30597;49.628;10.850;2023-07-20T13:24:34;105.97;;;85.93;;
44862;SDS011;30597;49.628;10.850;2023-07-20T13:26:59;92.87;;;74.97;;
44862;SDS011;30597;49.628;10.850;2023-07-20T13:29:25;86.43;;;71.87;;
44862;SDS011;30597;49.628;10.850;2023-07-20T13:31:51;85.37;;;73.47;;
44862;SDS011;30597;49.628;10.850;2023-07-20T13:34:16;89.10;;;74.40;;
44862;SDS011;30597;49.628;10.850;2023-07-20T13:36:42;102.03;;;84.03;;
44862;SDS011;30597;49.628;10.850;2023-07-20T13:39:07;89.90;;;73.03;;
44862;SDS011;30597;49.628;10.850;2023-07-20T13:41:34;90.77;;;79.80;;
44862;SDS011;30597;49.628;10.850;2023-07-20T13:43:59;100.17;;;83.87;;
44862;SDS011;30597;49.628;10.850;2023-07-20T13:46:25;89.80;;;79.80;;
44862;SDS011;30597;49.628;10.850;2023-07-20T13:48:50;101.90;;;83.23;;
44862;SDS011;30597;49.628;10.850;2023-07-20T13:51:16;85.43;;;71.20;;
44862;SDS011;30597;49.628;10.850;2023-07-20T13:53:42;85.03;;;69.07;;
44862;SDS011;30597;49.628;10.850;2023-07-20T13:56:10;80.70;;;69.00;;
44862;SDS011;30597;49.628;10.850;2023-07-20T13:58:35;81.57;;;68.00;;
44862;SDS011;30597;49.628;10.850;2023-07-20T14:01:01;79.80;;;66.43;;
44862;SDS011;30597;49.628;10.850;2023-07-20T14:03:27;80.20;;;65.83;;
44862;SDS011;30597;49.628;10.850;2023-07-20T14:05:53;83.93;;;63.23;;
44862;SDS011;30597;49.628;10.850;2023-07-20T14:08:21;72.03;;;61.00;;
44862;SDS011;30597;49.628;10.850;2023-07-20T14:10:47;75.97;;;63.40;;
44862;SDS011;30597;49.628;10.850;2023-07-20T14:13:13;82.13;;;64.17;;
44862;SDS011;30597;49.628;10.850;2023-07-20T14:15:39;75.40;;;62.97;;
44862;SDS011;30597;49.628;10.850;2023-07-20T14:18:04;80.27;;;63.87;;
44862;SDS011;30597;49.628;10.850;2023-07-20T14:20:30;90.97;;;71.47;;
44862;SDS011;30597;49.628;10.850;2023-07-20T14:22:55;82.07;;;68.33;;
44862;SDS011;30597;49.628;10.850;2023-07-20T14:25:21;65.63;;;53.40;;
44862;SDS011;30597;49.628;10.850;2023-07-20T14:27:47;66.00;;;58.10;;
44862;SDS011;30597;49.628;10.850;2023-07-20T14:30:12;69.87;;;58.07;;
44862;SDS011;30597;49.628;10.850;2023-07-20T14:32:38;73.97;;;61.83;;
44862;SDS011;30597;49.628;10.850;2023-07-20T14:35:05;69.80;;;58.13;;
44862;SDS011;30597;49.628;10.850;2023-07-20T14:37:32;78.17;;;61.60;;